CheckWX is a tool to help pilots better visualize weather data.  It is not intended as a substitute for an official pre-flight weather briefing.

06:12:37 UTC

EGGP METAR
Liverpool John Lennon Airport
Liverpool, United Kingdom
Current

23 mins ago

EGGP 220550Z 10005KT CAVOK 08/04 Q1008
Observed
Apr-22 @ 05:50 UTC
Wind
  • 100° at 5 KTS
Visibility
10,000+ meters
Flight Rules
VFR
Cloud Levels
  • Clear skies
Temperature
C / 46°F
Dewpoint
C / 39°F
Humidity
76%
Altimeter
29.76" Hg
Pressure
1007.92 hPa
Previous

53 mins ago

EGGP 220520Z 11005KT CAVOK 08/04 Q1009
Observed
Apr-22 @ 05:20 UTC
Wind
  • 110° at 5 KTS
Visibility
10,000+ meters
Flight Rules
VFR
Cloud Levels
  • Clear skies
Temperature
C / 46°F
Dewpoint
C / 39°F
Humidity
76%
Altimeter
29.79" Hg
Pressure
1008.92 hPa
Previous

1 hour ago

EGGP 220450Z 09007KT CAVOK 08/04 Q1009
Observed
Apr-22 @ 04:50 UTC
Wind
  • 090° at 7 KTS
Visibility
10,000+ meters
Flight Rules
VFR
Cloud Levels
  • Clear skies
Temperature
C / 46°F
Dewpoint
C / 39°F
Humidity
76%
Altimeter
29.79" Hg
Pressure
1008.92 hPa